sensor_id;sensor_type;location;lat;lon;timestamp;P1;durP1;ratioP1;P2;durP2;ratioP2
5876;SDS011;2964;42.144;24.730;2022-11-02T00:01:46;27.67;;;14.53;;
5876;SDS011;2964;42.144;24.730;2022-11-02T00:04:13;21.73;;;15.87;;
5876;SDS011;2964;42.144;24.730;2022-11-02T00:06:40;22.70;;;15.13;;
5876;SDS011;2964;42.144;24.730;2022-11-02T00:09:09;21.47;;;15.50;;
5876;SDS011;2964;42.144;24.730;2022-11-02T00:11:36;24.50;;;15.60;;
5876;SDS011;2964;42.144;24.730;2022-11-02T00:14:03;25.60;;;15.43;;
5876;SDS011;2964;42.144;24.730;2022-11-02T00:16:29;24.27;;;15.40;;
5876;SDS011;2964;42.144;24.730;2022-11-02T00:18:57;18.10;;;13.87;;
5876;SDS011;2964;42.144;24.730;2022-11-02T00:21:26;16.80;;;13.70;;
5876;SDS011;2964;42.144;24.730;2022-11-02T00:23:53;18.23;;;15.03;;
5876;SDS011;2964;42.144;24.730;2022-11-02T00:26:23;25.17;;;14.23;;
5876;SDS011;2964;42.144;24.730;2022-11-02T00:28:51;24.53;;;14.27;;
5876;SDS011;2964;42.144;24.730;2022-11-02T00:31:18;26.83;;;14.43;;
5876;SDS011;2964;42.144;24.730;2022-11-02T00:33:44;25.23;;;14.77;;
5876;SDS011;2964;42.144;24.730;2022-11-02T00:36:11;25.97;;;14.43;;
5876;SDS011;2964;42.144;24.730;2022-11-02T00:38:38;23.57;;;14.03;;
5876;SDS011;2964;42.144;24.730;2022-11-02T00:41:05;21.73;;;14.50;;
5876;SDS011;2964;42.144;24.730;2022-11-02T00:43:33;23.30;;;13.83;;
5876;SDS011;2964;42.144;24.730;2022-11-02T00:46:00;16.70;;;13.93;;
5876;SDS011;2964;42.144;24.730;2022-11-02T00:48:26;22.87;;;14.40;;
5876;SDS011;2964;42.144;24.730;2022-11-02T00:50:53;16.43;;;13.97;;
5876;SDS011;2964;42.144;24.730;2022-11-02T00:53:20;28.50;;;14.27;;
5876;SDS011;2964;42.144;24.730;2022-11-02T00:55:47;21.93;;;13.97;;
5876;SDS011;2964;42.144;24.730;2022-11-02T00:58:13;25.27;;;14.70;;
5876;SDS011;2964;42.144;24.730;2022-11-02T01:00:41;18.40;;;13.37;;
5876;SDS011;2964;42.144;24.730;2022-11-02T01:03:08;25.67;;;13.87;;
5876;SDS011;2964;42.144;24.730;2022-11-02T01:05:35;18.83;;;13.43;;
5876;SDS011;2964;42.144;24.730;2022-11-02T01:08:02;20.63;;;14.73;;
5876;SDS011;2964;42.144;24.730;2022-11-02T01:10:29;21.20;;;14.30;;
5876;SDS011;2964;42.144;24.730;2022-11-02T01:12:55;20.80;;;13.83;;
5876;SDS011;2964;42.144;24.730;2022-11-02T01:15:22;21.10;;;14.33;;
5876;SDS011;2964;42.144;24.730;2022-11-02T01:17:50;20.67;;;14.90;;
5876;SDS011;2964;42.144;24.730;2022-11-02T01:20:17;22.33;;;14.33;;
5876;SDS011;2964;42.144;24.730;2022-11-02T01:22:43;17.10;;;14.47;;
5876;SDS011;2964;42.144;24.730;2022-11-02T01:25:10;21.27;;;14.60;;
5876;SDS011;2964;42.144;24.730;2022-11-02T01:27:37;25.10;;;15.27;;
5876;SDS011;2964;42.144;24.730;2022-11-02T01:30:04;34.20;;;15.80;;
5876;SDS011;2964;42.144;24.730;2022-11-02T01:32:31;21.73;;;14.57;;
5876;SDS011;2964;42.144;24.730;2022-11-02T01:34:59;30.00;;;15.27;;
5876;SDS011;2964;42.144;24.730;2022-11-02T01:37:27;29.73;;;15.83;;
5876;SDS011;2964;42.144;24.730;2022-11-02T01:39:53;23.00;;;14.67;;
5876;SDS011;2964;42.144;24.730;2022-11-02T01:42:21;19.53;;;15.20;;
5876;SDS011;2964;42.144;24.730;2022-11-02T01:44:49;21.90;;;14.80;;
5876;SDS011;2964;42.144;24.730;2022-11-02T01:47:17;19.03;;;14.13;;
5876;SDS011;2964;42.144;24.730;2022-11-02T01:49:48;23.63;;;15.10;;
5876;SDS011;2964;42.144;24.730;2022-11-02T01:52:20;24.63;;;15.47;;
5876;SDS011;2964;42.144;24.730;2022-11-02T01:54:53;22.77;;;16.13;;
5876;SDS011;2964;42.144;24.730;2022-11-02T01:57:24;33.67;;;16.77;;
5876;SDS011;2964;42.144;24.730;2022-11-02T01:59:53;25.60;;;15.43;;
5876;SDS011;2964;42.144;24.730;2022-11-02T02:02:23;24.00;;;14.80;;
5876;SDS011;2964;42.144;24.730;2022-11-02T02:04:52;31.47;;;15.80;;
5876;SDS011;2964;42.144;24.730;2022-11-02T02:07:25;26.37;;;15.30;;
5876;SDS011;2964;42.144;24.730;2022-11-02T02:09:53;22.00;;;15.17;;
5876;SDS011;2964;42.144;24.730;2022-11-02T02:12:21;29.57;;;15.77;;
5876;SDS011;2964;42.144;24.730;2022-11-02T02:14:48;27.13;;;15.43;;
5876;SDS011;2964;42.144;24.730;2022-11-02T02:20:09;21.87;;;14.97;;
5876;SDS011;2964;42.144;24.730;2022-11-02T02:23:01;21.27;;;14.97;;
5876;SDS011;2964;42.144;24.730;2022-11-02T02:25:55;17.70;;;15.07;;
5876;SDS011;2964;42.144;24.730;2022-11-02T02:28:39;22.43;;;14.90;;
5876;SDS011;2964;42.144;24.730;2022-11-02T02:31:11;21.63;;;15.37;;
5876;SDS011;2964;42.144;24.730;2022-11-02T02:33:45;20.93;;;15.73;;
5876;SDS011;2964;42.144;24.730;2022-11-02T02:36:19;22.70;;;15.07;;
5876;SDS011;2964;42.144;24.730;2022-11-02T02:38:53;26.50;;;16.13;;
5876;SDS011;2964;42.144;24.730;2022-11-02T02:41:28;28.20;;;15.23;;
5876;SDS011;2964;42.144;24.730;2022-11-02T02:44:02;26.20;;;15.30;;
5876;SDS011;2964;42.144;24.730;2022-11-02T02:46:34;26.00;;;16.43;;
5876;SDS011;2964;42.144;24.730;2022-11-02T02:49:05;23.73;;;15.10;;
5876;SDS011;2964;42.144;24.730;2022-11-02T02:51:35;24.23;;;14.77;;
5876;SDS011;2964;42.144;24.730;2022-11-02T02:54:05;17.90;;;15.13;;
5876;SDS011;2964;42.144;24.730;2022-11-02T02:56:35;23.23;;;14.83;;
5876;SDS011;2964;42.144;24.730;2022-11-02T02:59:06;23.00;;;15.40;;
5876;SDS011;2964;42.144;24.730;2022-11-02T03:01:39;24.57;;;14.80;;
5876;SDS011;2964;42.144;24.730;2022-11-02T03:04:09;24.63;;;15.90;;
5876;SDS011;2964;42.144;24.730;2022-11-02T03:06:37;19.17;;;14.77;;
5876;SDS011;2964;42.144;24.730;2022-11-02T03:09:07;23.60;;;14.87;;
5876;SDS011;2964;42.144;24.730;2022-11-02T03:11:39;21.70;;;14.53;;
5876;SDS011;2964;42.144;24.730;2022-11-02T03:14:19;17.30;;;14.47;;
5876;SDS011;2964;42.144;24.730;2022-11-02T03:17:01;26.47;;;15.17;;
5876;SDS011;2964;42.144;24.730;2022-11-02T03:19:37;20.37;;;15.53;;
5876;SDS011;2964;42.144;24.730;2022-11-02T03:22:17;28.70;;;16.10;;
5876;SDS011;2964;42.144;24.730;2022-11-02T03:24:54;25.17;;;15.83;;
5876;SDS011;2964;42.144;24.730;2022-11-02T03:27:29;29.40;;;15.90;;
5876;SDS011;2964;42.144;24.730;2022-11-02T03:30:04;33.03;;;15.67;;
5876;SDS011;2964;42.144;24.730;2022-11-02T03:32:35;34.30;;;15.33;;
5876;SDS011;2964;42.144;24.730;2022-11-02T03:35:09;20.73;;;14.30;;
5876;SDS011;2964;42.144;24.730;2022-11-02T03:37:43;23.80;;;15.70;;
5876;SDS011;2964;42.144;24.730;2022-11-02T03:40:13;22.83;;;14.77;;
5876;SDS011;2964;42.144;24.730;2022-11-02T03:42:45;20.17;;;15.17;;
5876;SDS011;2964;42.144;24.730;2022-11-02T03:45:15;21.93;;;15.00;;
5876;SDS011;2964;42.144;24.730;2022-11-02T03:47:45;23.83;;;15.20;;
5876;SDS011;2964;42.144;24.730;2022-11-02T03:50:15;22.50;;;15.07;;
5876;SDS011;2964;42.144;24.730;2022-11-02T03:52:46;23.00;;;14.40;;
5876;SDS011;2964;42.144;24.730;2022-11-02T03:55:17;25.60;;;15.70;;
5876;SDS011;2964;42.144;24.730;2022-11-02T03:57:47;19.43;;;14.53;;
5876;SDS011;2964;42.144;24.730;2022-11-02T04:00:18;21.67;;;15.00;;
5876;SDS011;2964;42.144;24.730;2022-11-02T04:02:46;21.60;;;14.93;;
5876;SDS011;2964;42.144;24.730;2022-11-02T04:05:15;23.33;;;14.33;;
5876;SDS011;2964;42.144;24.730;2022-11-02T04:07:42;20.67;;;14.10;;
5876;SDS011;2964;42.144;24.730;2022-11-02T04:10:29;26.43;;;15.13;;
5876;SDS011;2964;42.144;24.730;2022-11-02T04:12:55;28.73;;;14.43;;
5876;SDS011;2964;42.144;24.730;2022-11-02T04:15:41;21.40;;;15.30;;
5876;SDS011;2964;42.144;24.730;2022-11-02T04:18:08;19.17;;;14.47;;
5876;SDS011;2964;42.144;24.730;2022-11-02T04:20:52;21.83;;;13.80;;
5876;SDS011;2964;42.144;24.730;2022-11-02T04:23:19;18.53;;;13.97;;
5876;SDS011;2964;42.144;24.730;2022-11-02T04:26:03;19.57;;;13.97;;
5876;SDS011;2964;42.144;24.730;2022-11-02T04:28:30;18.80;;;13.43;;
5876;SDS011;2964;42.144;24.730;2022-11-02T04:30:58;23.43;;;14.37;;
5876;SDS011;2964;42.144;24.730;2022-11-02T04:33:25;23.73;;;14.30;;
5876;SDS011;2964;42.144;24.730;2022-11-02T04:36:00;21.83;;;14.63;;
5876;SDS011;2964;42.144;24.730;2022-11-02T04:38:28;24.13;;;14.40;;
5876;SDS011;2964;42.144;24.730;2022-11-02T04:41:06;26.57;;;14.93;;
5876;SDS011;2964;42.144;24.730;2022-11-02T04:43:52;21.77;;;14.33;;
5876;SDS011;2964;42.144;24.730;2022-11-02T04:46:20;21.00;;;14.33;;
5876;SDS011;2964;42.144;24.730;2022-11-02T04:48:49;25.73;;;14.67;;
5876;SDS011;2964;42.144;24.730;2022-11-02T04:51:16;28.17;;;15.50;;
5876;SDS011;2964;42.144;24.730;2022-11-02T04:53:44;27.93;;;15.23;;
5876;SDS011;2964;42.144;24.730;2022-11-02T04:56:11;22.30;;;15.53;;
5876;SDS011;2964;42.144;24.730;2022-11-02T04:58:37;23.23;;;15.90;;
5876;SDS011;2964;42.144;24.730;2022-11-02T05:01:04;30.40;;;15.37;;
5876;SDS011;2964;42.144;24.730;2022-11-02T05:03:33;24.67;;;14.80;;
5876;SDS011;2964;42.144;24.730;2022-11-02T05:06:00;28.77;;;15.53;;
5876;SDS011;2964;42.144;24.730;2022-11-02T05:08:27;25.40;;;14.20;;
5876;SDS011;2964;42.144;24.730;2022-11-02T05:10:54;20.60;;;14.00;;
5876;SDS011;2964;42.144;24.730;2022-11-02T05:13:21;23.03;;;13.73;;
5876;SDS011;2964;42.144;24.730;2022-11-02T05:15:48;22.40;;;14.20;;
5876;SDS011;2964;42.144;24.730;2022-11-02T05:18:15;20.57;;;13.77;;
5876;SDS011;2964;42.144;24.730;2022-11-02T05:20:48;19.37;;;14.37;;
5876;SDS011;2964;42.144;24.730;2022-11-02T05:23:15;31.33;;;13.03;;
5876;SDS011;2964;42.144;24.730;2022-11-02T05:25:41;24.43;;;14.37;;
5876;SDS011;2964;42.144;24.730;2022-11-02T05:28:08;29.10;;;15.77;;
5876;SDS011;2964;42.144;24.730;2022-11-02T05:30:35;32.50;;;14.63;;
5876;SDS011;2964;42.144;24.730;2022-11-02T05:33:01;29.13;;;14.40;;
5876;SDS011;2964;42.144;24.730;2022-11-02T05:35:28;24.00;;;13.53;;
5876;SDS011;2964;42.144;24.730;2022-11-02T05:37:56;30.30;;;13.97;;
5876;SDS011;2964;42.144;24.730;2022-11-02T05:40:23;18.83;;;13.60;;
5876;SDS011;2964;42.144;24.730;2022-11-02T05:42:49;22.63;;;14.03;;
5876;SDS011;2964;42.144;24.730;2022-11-02T05:45:16;23.03;;;14.87;;
5876;SDS011;2964;42.144;24.730;2022-11-02T05:47:42;26.47;;;14.03;;
5876;SDS011;2964;42.144;24.730;2022-11-02T05:50:09;28.83;;;14.00;;
5876;SDS011;2964;42.144;24.730;2022-11-02T05:52:36;25.33;;;13.70;;
5876;SDS011;2964;42.144;24.730;2022-11-02T05:55:04;21.43;;;13.13;;
5876;SDS011;2964;42.144;24.730;2022-11-02T05:57:32;20.60;;;13.87;;
5876;SDS011;2964;42.144;24.730;2022-11-02T05:59:58;32.20;;;16.03;;
5876;SDS011;2964;42.144;24.730;2022-11-02T06:02:25;20.57;;;13.73;;
5876;SDS011;2964;42.144;24.730;2022-11-02T06:04:52;24.63;;;13.67;;
5876;SDS011;2964;42.144;24.730;2022-11-02T06:07:18;24.63;;;14.23;;
5876;SDS011;2964;42.144;24.730;2022-11-02T06:09:45;29.53;;;16.87;;
5876;SDS011;2964;42.144;24.730;2022-11-02T06:12:13;33.90;;;15.63;;
5876;SDS011;2964;42.144;24.730;2022-11-02T06:14:40;29.17;;;14.90;;
5876;SDS011;2964;42.144;24.730;2022-11-02T06:17:06;27.20;;;14.07;;
5876;SDS011;2964;42.144;24.730;2022-11-02T06:19:33;33.20;;;15.67;;
5876;SDS011;2964;42.144;24.730;2022-11-02T06:22:00;29.60;;;15.03;;
5876;SDS011;2964;42.144;24.730;2022-11-02T06:24:26;29.17;;;14.10;;
5876;SDS011;2964;42.144;24.730;2022-11-02T06:26:53;22.20;;;14.27;;
5876;SDS011;2964;42.144;24.730;2022-11-02T06:29:21;30.47;;;15.30;;
5876;SDS011;2964;42.144;24.730;2022-11-02T06:31:48;23.03;;;13.13;;
5876;SDS011;2964;42.144;24.730;2022-11-02T06:34:15;26.00;;;13.83;;
5876;SDS011;2964;42.144;24.730;2022-11-02T06:36:41;22.17;;;14.13;;
5876;SDS011;2964;42.144;24.730;2022-11-02T06:39:08;27.93;;;14.57;;
5876;SDS011;2964;42.144;24.730;2022-11-02T06:41:35;24.40;;;13.57;;
5876;SDS011;2964;42.144;24.730;2022-11-02T06:44:01;30.30;;;14.07;;
5876;SDS011;2964;42.144;24.730;2022-11-02T06:46:29;23.20;;;15.27;;
5876;SDS011;2964;42.144;24.730;2022-11-02T06:48:56;24.90;;;14.67;;
5876;SDS011;2964;42.144;24.730;2022-11-02T06:51:23;36.17;;;14.17;;
5876;SDS011;2964;42.144;24.730;2022-11-02T06:53:50;31.03;;;14.37;;
5876;SDS011;2964;42.144;24.730;2022-11-02T06:56:16;31.13;;;15.90;;
5876;SDS011;2964;42.144;24.730;2022-11-02T06:58:43;31.03;;;15.57;;
5876;SDS011;2964;42.144;24.730;2022-11-02T07:01:09;23.00;;;14.13;;
5876;SDS011;2964;42.144;24.730;2022-11-02T07:03:38;23.17;;;13.60;;
5876;SDS011;2964;42.144;24.730;2022-11-02T07:06:05;25.47;;;12.07;;
5876;SDS011;2964;42.144;24.730;2022-11-02T07:08:32;21.33;;;13.93;;
5876;SDS011;2964;42.144;24.730;2022-11-02T07:10:59;24.00;;;12.37;;
5876;SDS011;2964;42.144;24.730;2022-11-02T07:13:25;20.57;;;12.93;;
5876;SDS011;2964;42.144;24.730;2022-11-02T07:15:52;25.00;;;12.73;;
5876;SDS011;2964;42.144;24.730;2022-11-02T07:18:19;19.47;;;11.30;;
5876;SDS011;2964;42.144;24.730;2022-11-02T07:20:48;17.47;;;12.37;;
5876;SDS011;2964;42.144;24.730;2022-11-02T07:23:15;19.13;;;10.53;;
5876;SDS011;2964;42.144;24.730;2022-11-02T07:25:42;19.13;;;9.60;;
5876;SDS011;2964;42.144;24.730;2022-11-02T07:28:08;12.60;;;9.80;;
5876;SDS011;2964;42.144;24.730;2022-11-02T07:30:35;16.57;;;9.87;;
5876;SDS011;2964;42.144;24.730;2022-11-02T07:33:01;15.70;;;10.80;;
5876;SDS011;2964;42.144;24.730;2022-11-02T07:35:28;15.73;;;10.73;;
5876;SDS011;2964;42.144;24.730;2022-11-02T07:37:57;24.50;;;10.47;;
5876;SDS011;2964;42.144;24.730;2022-11-02T07:40:25;24.03;;;10.10;;
5876;SDS011;2964;42.144;24.730;2022-11-02T07:42:53;15.50;;;10.07;;
5876;SDS011;2964;42.144;24.730;2022-11-02T07:45:20;20.40;;;10.80;;
5876;SDS011;2964;42.144;24.730;2022-11-02T07:47:47;21.67;;;10.10;;
5876;SDS011;2964;42.144;24.730;2022-11-02T07:50:15;16.00;;;9.10;;
5876;SDS011;2964;42.144;24.730;2022-11-02T07:52:44;15.47;;;9.00;;
5876;SDS011;2964;42.144;24.730;2022-11-02T07:55:13;20.37;;;9.40;;
5876;SDS011;2964;42.144;24.730;2022-11-02T07:57:42;15.17;;;9.83;;
5876;SDS011;2964;42.144;24.730;2022-11-02T08:00:09;18.33;;;10.27;;
5876;SDS011;2964;42.144;24.730;2022-11-02T08:02:36;15.43;;;8.53;;
5876;SDS011;2964;42.144;24.730;2022-11-02T08:05:04;16.43;;;9.13;;
5876;SDS011;2964;42.144;24.730;2022-11-02T08:07:31;17.63;;;9.63;;
5876;SDS011;2964;42.144;24.730;2022-11-02T08:09:57;13.13;;;8.50;;
5876;SDS011;2964;42.144;24.730;2022-11-02T08:12:25;21.33;;;9.13;;
5876;SDS011;2964;42.144;24.730;2022-11-02T08:14:53;15.17;;;8.87;;
5876;SDS011;2964;42.144;24.730;2022-11-02T08:17:20;18.27;;;9.17;;
5876;SDS011;2964;42.144;24.730;2022-11-02T08:19:47;19.67;;;9.10;;
5876;SDS011;2964;42.144;24.730;2022-11-02T08:22:14;18.30;;;8.70;;
5876;SDS011;2964;42.144;24.730;2022-11-02T08:24:40;12.07;;;7.80;;
5876;SDS011;2964;42.144;24.730;2022-11-02T08:27:07;24.60;;;9.10;;
5876;SDS011;2964;42.144;24.730;2022-11-02T08:29:35;20.97;;;9.73;;
5876;SDS011;2964;42.144;24.730;2022-11-02T08:32:02;26.80;;;10.30;;
5876;SDS011;2964;42.144;24.730;2022-11-02T08:34:28;13.83;;;9.10;;
5876;SDS011;2964;42.144;24.730;2022-11-02T08:36:55;17.63;;;9.47;;
5876;SDS011;2964;42.144;24.730;2022-11-02T08:39:22;25.10;;;9.93;;
5876;SDS011;2964;42.144;24.730;2022-11-02T08:41:49;16.53;;;9.03;;
5876;SDS011;2964;42.144;24.730;2022-11-02T08:44:16;19.30;;;8.90;;
5876;SDS011;2964;42.144;24.730;2022-11-02T08:46:44;14.90;;;9.07;;
5876;SDS011;2964;42.144;24.730;2022-11-02T08:49:10;13.33;;;9.53;;
5876;SDS011;2964;42.144;24.730;2022-11-02T08:51:37;21.13;;;8.73;;
5876;SDS011;2964;42.144;24.730;2022-11-02T08:54:03;21.50;;;9.43;;
5876;SDS011;2964;42.144;24.730;2022-11-02T08:56:30;21.38;;;8.68;;
5876;SDS011;2964;42.144;24.730;2022-11-02T08:58:57;16.25;;;9.70;;
5876;SDS011;2964;42.144;24.730;2022-11-02T09:01:23;23.98;;;9.57;;
5876;SDS011;2964;42.144;24.730;2022-11-02T09:03:51;15.88;;;8.80;;
5876;SDS011;2964;42.144;24.730;2022-11-02T09:06:18;20.45;;;8.27;;
5876;SDS011;2964;42.144;24.730;2022-11-02T09:08:45;21.33;;;8.88;;
5876;SDS011;2964;42.144;24.730;2022-11-02T09:11:11;12.43;;;8.65;;
5876;SDS011;2964;42.144;24.730;2022-11-02T09:13:38;16.13;;;8.93;;
5876;SDS011;2964;42.144;24.730;2022-11-02T09:16:05;21.48;;;9.63;;
5876;SDS011;2964;42.144;24.730;2022-11-02T09:18:32;23.63;;;10.15;;
5876;SDS011;2964;42.144;24.730;2022-11-02T09:21:04;16.65;;;9.07;;
5876;SDS011;2964;42.144;24.730;2022-11-02T09:23:31;26.80;;;9.52;;
5876;SDS011;2964;42.144;24.730;2022-11-02T09:25:58;20.92;;;8.98;;
5876;SDS011;2964;42.144;24.730;2022-11-02T09:28:25;23.45;;;9.57;;
5876;SDS011;2964;42.144;24.730;2022-11-02T09:30:52;15.23;;;9.00;;
5876;SDS011;2964;42.144;24.730;2022-11-02T09:33:18;18.98;;;10.00;;
5876;SDS011;2964;42.144;24.730;2022-11-02T09:35:46;18.48;;;10.68;;
5876;SDS011;2964;42.144;24.730;2022-11-02T09:38:15;21.67;;;10.73;;
5876;SDS011;2964;42.144;24.730;2022-11-02T09:40:44;16.80;;;10.60;;
5876;SDS011;2964;42.144;24.730;2022-11-02T09:43:15;14.25;;;9.25;;
5876;SDS011;2964;42.144;24.730;2022-11-02T09:45:50;12.90;;;9.98;;
5876;SDS011;2964;42.144;24.730;2022-11-02T09:48:21;17.92;;;9.60;;
5876;SDS011;2964;42.144;24.730;2022-11-02T09:50:54;26.80;;;9.70;;
5876;SDS011;2964;42.144;24.730;2022-11-02T09:53:28;14.43;;;8.95;;
5876;SDS011;2964;42.144;24.730;2022-11-02T09:56:04;23.75;;;9.68;;
5876;SDS011;2964;42.144;24.730;2022-11-02T09:58:32;20.23;;;10.05;;
5876;SDS011;2964;42.144;24.730;2022-11-02T10:01:05;25.77;;;10.77;;
5876;SDS011;2964;42.144;24.730;2022-11-02T10:03:41;21.58;;;9.90;;
5876;SDS011;2964;42.144;24.730;2022-11-02T10:06:21;20.17;;;8.82;;
5876;SDS011;2964;42.144;24.730;2022-11-02T10:08:54;20.08;;;9.35;;
5876;SDS011;2964;42.144;24.730;2022-11-02T10:11:32;16.48;;;7.90;;
5876;SDS011;2964;42.144;24.730;2022-11-02T10:14:10;14.10;;;8.77;;
5876;SDS011;2964;42.144;24.730;2022-11-02T10:16:43;23.92;;;9.88;;
5876;SDS011;2964;42.144;24.730;2022-11-02T10:19:17;19.23;;;10.15;;
5876;SDS011;2964;42.144;24.730;2022-11-02T10:21:45;17.67;;;8.65;;
5876;SDS011;2964;42.144;24.730;2022-11-02T10:24:21;15.73;;;7.97;;
5876;SDS011;2964;42.144;24.730;2022-11-02T10:26:50;18.48;;;8.60;;
5876;SDS011;2964;42.144;24.730;2022-11-02T10:29:23;25.48;;;9.32;;
5876;SDS011;2964;42.144;24.730;2022-11-02T10:31:59;20.38;;;9.38;;
5876;SDS011;2964;42.144;24.730;2022-11-02T10:34:27;29.33;;;10.55;;
5876;SDS011;2964;42.144;24.730;2022-11-02T10:36:58;37.22;;;10.25;;
5876;SDS011;2964;42.144;24.730;2022-11-02T10:39:38;22.63;;;8.98;;
5876;SDS011;2964;42.144;24.730;2022-11-02T10:42:31;42.92;;;11.18;;
5876;SDS011;2964;42.144;24.730;2022-11-02T10:45:19;35.78;;;9.60;;
5876;SDS011;2964;42.144;24.730;2022-11-02T10:48:04;28.58;;;9.15;;
5876;SDS011;2964;42.144;24.730;2022-11-02T10:50:43;23.65;;;8.68;;
5876;SDS011;2964;42.144;24.730;2022-11-02T10:53:14;18.92;;;9.30;;
5876;SDS011;2964;42.144;24.730;2022-11-02T10:55:50;28.67;;;8.38;;
5876;SDS011;2964;42.144;24.730;2022-11-02T10:58:22;15.35;;;7.85;;
5876;SDS011;2964;42.144;24.730;2022-11-02T11:01:02;19.30;;;8.23;;
5876;SDS011;2964;42.144;24.730;2022-11-02T11:03:30;22.27;;;7.80;;
5876;SDS011;2964;42.144;24.730;2022-11-02T11:05:57;20.13;;;8.35;;
5876;SDS011;2964;42.144;24.730;2022-11-02T11:08:29;16.77;;;8.75;;
5876;SDS011;2964;42.144;24.730;2022-11-02T11:11:12;12.25;;;7.53;;
5876;SDS011;2964;42.144;24.730;2022-11-02T11:13:41;23.65;;;8.50;;
5876;SDS011;2964;42.144;24.730;2022-11-02T11:16:10;16.88;;;7.75;;
5876;SDS011;2964;42.144;24.730;2022-11-02T11:18:38;22.83;;;8.82;;
5876;SDS011;2964;42.144;24.730;2022-11-02T11:21:05;46.72;;;11.05;;
5876;SDS011;2964;42.144;24.730;2022-11-02T11:23:33;16.40;;;8.30;;
5876;SDS011;2964;42.144;24.730;2022-11-02T11:26:00;36.75;;;9.63;;
5876;SDS011;2964;42.144;24.730;2022-11-02T11:28:30;32.05;;;8.77;;
5876;SDS011;2964;42.144;24.730;2022-11-02T11:31:05;29.38;;;8.13;;
5876;SDS011;2964;42.144;24.730;2022-11-02T11:33:42;12.82;;;6.88;;
5876;SDS011;2964;42.144;24.730;2022-11-02T11:36:19;17.45;;;8.50;;
5876;SDS011;2964;42.144;24.730;2022-11-02T11:38:51;11.88;;;6.47;;
5876;SDS011;2964;42.144;24.730;2022-11-02T11:41:21;17.95;;;8.07;;
5876;SDS011;2964;42.144;24.730;2022-11-02T11:43:50;21.48;;;8.07;;
5876;SDS011;2964;42.144;24.730;2022-11-02T11:46:18;18.20;;;8.45;;
5876;SDS011;2964;42.144;24.730;2022-11-02T11:48:45;21.38;;;7.10;;
5876;SDS011;2964;42.144;24.730;2022-11-02T11:54:15;168.68;;;19.80;;
5876;SDS011;2964;42.144;24.730;2022-11-02T11:56:45;33.30;;;10.15;;
5876;SDS011;2964;42.144;24.730;2022-11-02T11:59:20;43.75;;;9.52;;
5876;SDS011;2964;42.144;24.730;2022-11-02T12:01:49;18.02;;;7.82;;
5876;SDS011;2964;42.144;24.730;2022-11-02T12:04:28;18.52;;;7.93;;
5876;SDS011;2964;42.144;24.730;2022-11-02T12:07:10;15.93;;;6.65;;
5876;SDS011;2964;42.144;24.730;2022-11-02T12:09:51;14.25;;;7.32;;
5876;SDS011;2964;42.144;24.730;2022-11-02T12:12:30;22.92;;;7.05;;
5876;SDS011;2964;42.144;24.730;2022-11-02T12:15:11;20.20;;;7.07;;
5876;SDS011;2964;42.144;24.730;2022-11-02T12:17:50;20.42;;;8.35;;
5876;SDS011;2964;42.144;24.730;2022-11-02T12:20:33;13.77;;;7.35;;
5876;SDS011;2964;42.144;24.730;2022-11-02T12:23:18;23.92;;;8.38;;
5876;SDS011;2964;42.144;24.730;2022-11-02T12:25:58;10.23;;;6.55;;
5876;SDS011;2964;42.144;24.730;2022-11-02T12:28:36;14.30;;;6.78;;
5876;SDS011;2964;42.144;24.730;2022-11-02T12:31:13;13.48;;;7.47;;
5876;SDS011;2964;42.144;24.730;2022-11-02T12:33:50;16.20;;;6.97;;
5876;SDS011;2964;42.144;24.730;2022-11-02T12:36:32;17.58;;;6.57;;
5876;SDS011;2964;42.144;24.730;2022-11-02T12:39:10;17.50;;;6.72;;
5876;SDS011;2964;42.144;24.730;2022-11-02T12:44:43;22.95;;;7.20;;
5876;SDS011;2964;42.144;24.730;2022-11-02T12:47:28;15.52;;;7.45;;
5876;SDS011;2964;42.144;24.730;2022-11-02T12:50:07;22.02;;;8.65;;
5876;SDS011;2964;42.144;24.730;2022-11-02T12:52:47;16.02;;;7.05;;
5876;SDS011;2964;42.144;24.730;2022-11-02T12:55:22;23.70;;;6.70;;
5876;SDS011;2964;42.144;24.730;2022-11-02T12:57:54;17.17;;;6.57;;
5876;SDS011;2964;42.144;24.730;2022-11-02T13:00:25;11.27;;;6.55;;
5876;SDS011;2964;42.144;24.730;2022-11-02T13:02:56;20.80;;;6.05;;
5876;SDS011;2964;42.144;24.730;2022-11-02T13:05:31;17.85;;;6.53;;
5876;SDS011;2964;42.144;24.730;2022-11-02T13:08:05;19.05;;;6.20;;
5876;SDS011;2964;42.144;24.730;2022-11-02T13:10:38;14.88;;;6.13;;
5876;SDS011;2964;42.144;24.730;2022-11-02T13:13:11;9.68;;;5.72;;
5876;SDS011;2964;42.144;24.730;2022-11-02T13:15:40;9.23;;;6.68;;
5876;SDS011;2964;42.144;24.730;2022-11-02T13:18:11;14.90;;;6.63;;
5876;SDS011;2964;42.144;24.730;2022-11-02T13:20:44;12.85;;;5.53;;
5876;SDS011;2964;42.144;24.730;2022-11-02T13:23:16;10.98;;;6.30;;
5876;SDS011;2964;42.144;24.730;2022-11-02T13:25:53;15.60;;;6.45;;
5876;SDS011;2964;42.144;24.730;2022-11-02T13:28:25;13.77;;;6.07;;
5876;SDS011;2964;42.144;24.730;2022-11-02T13:30:58;15.20;;;6.68;;
5876;SDS011;2964;42.144;24.730;2022-11-02T13:33:29;12.30;;;6.78;;
5876;SDS011;2964;42.144;24.730;2022-11-02T13:36:05;10.60;;;6.38;;
5876;SDS011;2964;42.144;24.730;2022-11-02T13:38:32;11.20;;;6.55;;
5876;SDS011;2964;42.144;24.730;2022-11-02T13:41:12;14.35;;;6.35;;
5876;SDS011;2964;42.144;24.730;2022-11-02T13:49:50;9.07;;;5.43;;
5876;SDS011;2964;42.144;24.730;2022-11-02T13:52:20;12.98;;;6.05;;
5876;SDS011;2964;42.144;24.730;2022-11-02T13:54:53;9.65;;;6.18;;
5876;SDS011;2964;42.144;24.730;2022-11-02T13:57:28;21.23;;;6.22;;
5876;SDS011;2964;42.144;24.730;2022-11-02T13:59:58;14.05;;;7.22;;
5876;SDS011;2964;42.144;24.730;2022-11-02T14:02:27;13.20;;;6.07;;
5876;SDS011;2964;42.144;24.730;2022-11-02T14:05:06;13.52;;;6.63;;
5876;SDS011;2964;42.144;24.730;2022-11-02T14:07:34;12.40;;;6.13;;
5876;SDS011;2964;42.144;24.730;2022-11-02T14:10:06;15.98;;;6.45;;
5876;SDS011;2964;42.144;24.730;2022-11-02T14:12:40;14.80;;;5.72;;
5876;SDS011;2964;42.144;24.730;2022-11-02T14:18:12;22.85;;;6.38;;
5876;SDS011;2964;42.144;24.730;2022-11-02T14:20:42;12.02;;;6.45;;
5876;SDS011;2964;42.144;24.730;2022-11-02T14:23:32;17.75;;;6.18;;
5876;SDS011;2964;42.144;24.730;2022-11-02T14:26:01;23.80;;;6.78;;
5876;SDS011;2964;42.144;24.730;2022-11-02T14:28:32;14.55;;;6.78;;
5876;SDS011;2964;42.144;24.730;2022-11-02T14:31:23;15.52;;;6.43;;
5876;SDS011;2964;42.144;24.730;2022-11-02T14:37:32;22.05;;;7.82;;
5876;SDS011;2964;42.144;24.730;2022-11-02T14:40:11;16.65;;;7.28;;
5876;SDS011;2964;42.144;24.730;2022-11-02T14:43:05;16.40;;;7.03;;
5876;SDS011;2964;42.144;24.730;2022-11-02T14:45:51;31.27;;;7.72;;
5876;SDS011;2964;42.144;24.730;2022-11-02T14:48:29;18.88;;;7.30;;
5876;SDS011;2964;42.144;24.730;2022-11-02T14:51:12;21.50;;;6.78;;
5876;SDS011;2964;42.144;24.730;2022-11-02T14:53:44;35.25;;;8.32;;
5876;SDS011;2964;42.144;24.730;2022-11-02T14:56:11;24.10;;;7.95;;
5876;SDS011;2964;42.144;24.730;2022-11-02T14:58:39;18.52;;;8.10;;
5876;SDS011;2964;42.144;24.730;2022-11-02T15:01:14;17.43;;;6.97;;
5876;SDS011;2964;42.144;24.730;2022-11-02T15:03:42;18.67;;;7.22;;
5876;SDS011;2964;42.144;24.730;2022-11-02T15:06:12;14.82;;;7.28;;
5876;SDS011;2964;42.144;24.730;2022-11-02T15:08:49;20.23;;;6.93;;
5876;SDS011;2964;42.144;24.730;2022-11-02T15:16:57;17.00;;;6.27;;
5876;SDS011;2964;42.144;24.730;2022-11-02T15:19:37;17.57;;;8.47;;
5876;SDS011;2964;42.144;24.730;2022-11-02T15:25:04;23.27;;;6.63;;
5876;SDS011;2964;42.144;24.730;2022-11-02T15:27:36;19.80;;;7.63;;
5876;SDS011;2964;42.144;24.730;2022-11-02T15:30:04;14.13;;;7.80;;
5876;SDS011;2964;42.144;24.730;2022-11-02T15:32:33;26.73;;;7.43;;